createdAt,value
2022-09-15T00:01:37.385Z,18.01
2022-09-15T00:03:58.899Z,17.98
2022-09-15T00:06:20.341Z,17.98
2022-09-15T00:08:42.035Z,18.06
2022-09-15T00:11:19.548Z,18.07
2022-09-15T00:13:41.405Z,18.00
2022-09-15T00:16:03.842Z,18.09
2022-09-15T00:18:25.694Z,18.10
2022-09-15T00:20:47.578Z,17.96
2022-09-15T00:23:10.664Z,17.96
2022-09-15T00:25:32.056Z,17.97
2022-09-15T00:27:53.478Z,18.05
2022-09-15T00:30:15.070Z,18.04
2022-09-15T00:32:36.502Z,18.00
2022-09-15T00:34:57.982Z,17.95
2022-09-15T00:37:19.625Z,17.82
2022-09-15T00:39:41.063Z,17.71
2022-09-15T00:42:03.912Z,17.75
2022-09-15T00:44:25.228Z,17.83
2022-09-15T00:47:09.364Z,17.80
2022-09-15T00:49:35.350Z,17.68
2022-09-15T00:52:17.118Z,17.75
2022-09-15T00:55:08.396Z,17.61
2022-09-15T00:57:42.637Z,17.45
2022-09-15T01:00:08.577Z,17.57
2022-09-15T01:02:34.239Z,17.58
2022-09-15T01:04:58.493Z,17.61
2022-09-15T01:07:27.428Z,17.63
2022-09-15T01:09:58.713Z,17.68
2022-09-15T01:12:21.776Z,17.72
2022-09-15T01:14:43.196Z,17.69
2022-09-15T01:17:10.293Z,17.77
2022-09-15T01:19:47.491Z,17.71
2022-09-15T01:22:14.785Z,17.77
2022-09-15T01:24:51.715Z,17.76
2022-09-15T01:27:42.521Z,17.56
2022-09-15T01:30:19.378Z,17.37
2022-09-15T01:33:05.574Z,17.29
2022-09-15T01:35:50.217Z,17.15
2022-09-15T01:38:42.067Z,17.01
2022-09-15T01:41:12.561Z,16.93
2022-09-15T01:43:39.498Z,16.89
2022-09-15T01:46:03.698Z,16.92
2022-09-15T01:48:28.133Z,16.87
2022-09-15T01:50:54.704Z,16.81
2022-09-15T01:53:20.034Z,16.62
2022-09-15T01:55:46.813Z,16.68
2022-09-15T01:58:08.654Z,16.52
2022-09-15T02:00:34.003Z,16.44
2022-09-15T02:03:00.882Z,16.40
2022-09-15T02:05:30.201Z,16.39
2022-09-15T02:07:51.541Z,16.46
2022-09-15T02:10:29.629Z,16.50
2022-09-15T02:13:19.731Z,16.43
2022-09-15T02:15:48.057Z,16.52
2022-09-15T02:18:14.188Z,16.60
2022-09-15T02:20:48.509Z,16.52
2022-09-15T02:23:18.820Z,16.55
2022-09-15T02:25:52.731Z,16.61
2022-09-15T02:28:18.869Z,16.57
2022-09-15T02:30:43.239Z,16.49
2022-09-15T02:33:08.277Z,16.50
2022-09-15T02:35:32.817Z,16.48
2022-09-15T02:37:55.241Z,16.44
2022-09-15T02:40:16.785Z,16.46
2022-09-15T02:42:39.274Z,16.44
2022-09-15T02:45:01.481Z,16.39
2022-09-15T02:47:23.972Z,16.35
2022-09-15T02:49:45.477Z,16.37
2022-09-15T02:52:07.366Z,16.27
2022-09-15T02:54:28.866Z,16.14
2022-09-15T02:56:50.408Z,16.07
2022-09-15T02:59:11.822Z,15.88
2022-09-15T03:01:34.803Z,15.98
2022-09-15T03:03:56.465Z,16.02
2022-09-15T03:06:17.920Z,16.01
2022-09-15T03:08:39.615Z,16.02
2022-09-15T03:11:01.010Z,16.10
2022-09-15T03:13:22.902Z,16.08
2022-09-15T03:15:44.315Z,16.04
2022-09-15T03:18:05.773Z,16.08
2022-09-15T03:20:28.608Z,16.06
2022-09-15T03:22:50.331Z,16.08
2022-09-15T03:25:12.195Z,16.01
2022-09-15T03:27:36.933Z,15.82
2022-09-15T03:29:58.529Z,15.82
2022-09-15T03:32:19.948Z,15.78
2022-09-15T03:34:41.693Z,15.82
2022-09-15T03:37:03.159Z,15.87
2022-09-15T03:39:24.645Z,15.90
2022-09-15T03:41:46.059Z,15.87
2022-09-15T03:44:07.514Z,15.93
2022-09-15T03:46:29.491Z,15.94
2022-09-15T03:48:50.945Z,15.96
2022-09-15T03:51:12.337Z,15.93
2022-09-15T03:53:35.254Z,15.82
2022-09-15T03:56:07.674Z,15.79
2022-09-15T03:58:30.955Z,15.73
2022-09-15T04:00:52.500Z,15.65
2022-09-15T04:03:14.231Z,15.78
2022-09-15T04:05:36.473Z,15.82
2022-09-15T04:07:57.900Z,15.70
2022-09-15T04:10:19.340Z,15.73
2022-09-15T04:12:40.741Z,15.70
2022-09-15T04:15:02.441Z,15.77
2022-09-15T04:17:24.030Z,15.80
2022-09-15T04:19:45.627Z,15.84
2022-09-15T04:22:07.104Z,15.76
2022-09-15T04:24:28.562Z,15.84
2022-09-15T04:26:49.994Z,15.81
2022-09-15T04:29:14.261Z,15.94
2022-09-15T04:31:35.731Z,15.88
2022-09-15T04:33:57.264Z,15.80
2022-09-15T04:36:21.184Z,15.77
2022-09-15T04:38:43.177Z,15.84
2022-09-15T04:41:05.243Z,15.69
2022-09-15T04:43:27.150Z,15.68
2022-09-15T04:45:48.997Z,15.58
2022-09-15T04:48:10.415Z,15.61
2022-09-15T04:50:32.412Z,15.65
2022-09-15T04:52:53.895Z,15.63
2022-09-15T04:55:15.386Z,15.56
2022-09-15T04:57:36.781Z,15.50
2022-09-15T04:59:58.201Z,15.41
2022-09-15T05:02:19.621Z,15.37
2022-09-15T05:04:41.179Z,15.27
2022-09-15T05:07:02.674Z,15.25
2022-09-15T05:09:24.269Z,15.38
2022-09-15T05:11:45.669Z,15.38
2022-09-15T05:14:08.188Z,15.41
2022-09-15T05:16:30.102Z,15.30
2022-09-15T05:18:55.185Z,15.45
2022-09-15T05:21:19.416Z,15.45
2022-09-15T05:23:41.132Z,15.46
2022-09-15T05:26:05.646Z,15.62
2022-09-15T05:28:27.998Z,15.72
2022-09-15T05:30:49.589Z,15.74
2022-09-15T05:33:11.065Z,15.74
2022-09-15T05:35:32.768Z,15.81
2022-09-15T05:37:54.167Z,15.89
2022-09-15T05:40:15.957Z,16.00
2022-09-15T05:42:37.470Z,16.06
2022-09-15T05:44:58.927Z,16.02
2022-09-15T05:47:20.424Z,16.13
2022-09-15T05:49:41.847Z,16.27
2022-09-15T05:52:03.757Z,16.34
2022-09-15T05:54:27.333Z,16.40
2022-09-15T05:56:48.753Z,16.52
2022-09-15T05:59:10.181Z,16.63
2022-09-15T06:01:31.711Z,16.70
2022-09-15T06:03:54.210Z,16.69
2022-09-15T06:06:16.125Z,16.64
2022-09-15T06:08:44.264Z,16.67
2022-09-15T06:11:15.579Z,16.82
2022-09-15T06:13:37.726Z,16.95
2022-09-15T06:16:22.839Z,16.99
2022-09-15T06:18:44.383Z,17.10
2022-09-15T06:21:08.428Z,17.17
2022-09-15T06:23:29.868Z,17.25
2022-09-15T06:25:51.274Z,17.37
2022-09-15T06:28:12.732Z,17.34
2022-09-15T06:30:34.209Z,17.27
2022-09-15T06:32:55.642Z,17.43
2022-09-15T06:35:17.367Z,17.40
2022-09-15T06:37:38.801Z,17.39
2022-09-15T06:40:00.920Z,17.35
2022-09-15T06:42:22.394Z,17.39
2022-09-15T06:44:43.935Z,17.34
2022-09-15T06:47:05.432Z,17.59
2022-09-15T06:49:26.850Z,17.54
2022-09-15T06:51:48.461Z,17.62
2022-09-15T06:54:09.899Z,17.57
2022-09-15T06:56:35.835Z,17.45
2022-09-15T06:59:00.218Z,17.43
2022-09-15T07:01:25.176Z,17.49
2022-09-15T07:03:46.736Z,17.32
2022-09-15T07:06:09.417Z,17.16
2022-09-15T07:08:30.850Z,16.97
2022-09-15T07:10:52.447Z,17.05
2022-09-15T07:13:13.909Z,16.91
2022-09-15T07:15:35.359Z,16.76
2022-09-15T07:17:56.843Z,16.64
2022-09-15T07:20:18.246Z,16.71
2022-09-15T07:22:39.870Z,16.80
2022-09-15T07:25:01.274Z,16.87
2022-09-15T07:27:26.753Z,16.92
2022-09-15T07:29:48.155Z,16.95
2022-09-15T07:32:09.682Z,16.86
2022-09-15T07:34:31.304Z,16.97
2022-09-15T07:36:52.723Z,16.86
2022-09-15T07:39:14.144Z,16.90
2022-09-15T07:41:35.590Z,16.90
2022-09-15T07:43:59.621Z,16.97
2022-09-15T07:46:23.142Z,16.97
2022-09-15T07:48:46.285Z,16.93
2022-09-15T07:51:07.695Z,16.92
2022-09-15T07:53:30.342Z,16.93
2022-09-15T07:55:53.400Z,16.98
2022-09-15T07:58:14.820Z,17.05
2022-09-15T08:00:38.737Z,16.94
2022-09-15T08:03:00.283Z,16.97
2022-09-15T08:05:23.599Z,17.10
2022-09-15T08:07:45.107Z,17.24
2022-09-15T08:10:06.948Z,17.33
2022-09-15T08:12:30.680Z,17.43
2022-09-15T08:14:52.111Z,17.38
2022-09-15T08:17:13.530Z,17.49
2022-09-15T08:19:35.902Z,17.43
2022-09-15T08:21:57.606Z,17.56
2022-09-15T08:24:19.283Z,17.73
2022-09-15T08:26:42.159Z,17.83
2022-09-15T08:29:03.863Z,17.99
2022-09-15T08:31:25.477Z,18.00
2022-09-15T08:33:51.855Z,17.91
2022-09-15T08:36:13.489Z,18.04
2022-09-15T08:38:34.988Z,17.97
2022-09-15T08:41:03.202Z,18.03
2022-09-15T08:43:27.642Z,18.10
2022-09-15T08:45:58.838Z,18.25
2022-09-15T08:48:27.602Z,18.02
2022-09-15T08:50:52.346Z,17.98
2022-09-15T08:53:32.426Z,18.10
2022-09-15T08:56:00.281Z,18.36
2022-09-15T08:58:24.657Z,18.61
2022-09-15T09:00:51.703Z,18.51
2022-09-15T09:03:28.449Z,18.59
2022-09-15T09:05:58.437Z,18.56
2022-09-15T09:08:35.169Z,18.57
2022-09-15T09:11:18.343Z,18.77
2022-09-15T09:13:47.305Z,19.08
2022-09-15T09:16:44.168Z,19.24
2022-09-15T09:19:30.073Z,19.34
2022-09-15T09:22:01.801Z,19.49
2022-09-15T09:24:29.407Z,19.48
2022-09-15T09:26:54.386Z,19.40
2022-09-15T09:29:18.819Z,19.44
2022-09-15T09:31:41.713Z,19.36
2022-09-15T09:34:18.336Z,19.21
2022-09-15T09:36:39.946Z,19.32
2022-09-15T09:39:02.534Z,19.55
2022-09-15T09:41:27.369Z,19.27
2022-09-15T09:43:49.503Z,19.11
2022-09-15T09:46:15.052Z,18.93
2022-09-15T09:48:36.602Z,18.98
2022-09-15T09:50:58.100Z,18.82
2022-09-15T09:53:32.757Z,18.73
2022-09-15T09:56:02.195Z,18.51
2022-09-15T09:58:25.572Z,18.43
2022-09-15T10:00:47.530Z,18.61
2022-09-15T10:03:20.531Z,18.81
2022-09-15T10:05:43.595Z,18.81
2022-09-15T10:08:05.077Z,19.10
2022-09-15T10:10:32.358Z,19.38
2022-09-15T10:12:57.497Z,19.40
2022-09-15T10:15:28.020Z,19.46
2022-09-15T10:17:51.731Z,19.45
2022-09-15T10:20:47.809Z,19.82
2022-09-15T10:23:17.953Z,20.04
2022-09-15T10:25:57.964Z,20.55
2022-09-15T10:28:25.820Z,20.87
2022-09-15T10:31:16.030Z,20.71
2022-09-15T10:33:39.460Z,20.96
2022-09-15T10:36:05.710Z,20.94
2022-09-15T10:39:06.689Z,20.90
2022-09-15T10:41:31.055Z,20.44
2022-09-15T10:44:22.849Z,20.02
2022-09-15T10:47:17.710Z,20.03
2022-09-15T10:49:56.606Z,20.06
2022-09-15T10:52:43.758Z,20.40
2022-09-15T10:55:16.534Z,20.39
2022-09-15T10:57:56.010Z,20.69
2022-09-15T11:00:22.925Z,21.04
2022-09-15T11:02:53.397Z,20.88
2022-09-15T11:05:23.030Z,21.00
2022-09-15T11:07:50.540Z,21.52
2022-09-15T11:10:25.420Z,21.70
2022-09-15T11:12:57.984Z,21.58
2022-09-15T11:15:30.827Z,21.28
2022-09-15T11:18:11.469Z,20.58
2022-09-15T11:20:39.226Z,19.94
2022-09-15T11:23:21.551Z,19.39
2022-09-15T11:25:47.694Z,19.05
2022-09-15T11:28:18.648Z,18.50
2022-09-15T11:30:48.051Z,18.39
2022-09-15T11:33:20.107Z,18.20
2022-09-15T11:35:53.887Z,18.02
2022-09-15T11:38:34.423Z,17.96
2022-09-15T11:41:08.942Z,17.98
2022-09-15T11:43:37.489Z,17.89
2022-09-15T11:46:01.648Z,17.89
2022-09-15T11:48:43.542Z,17.77
2022-09-15T11:51:07.567Z,17.69
2022-09-15T11:53:46.925Z,17.65
2022-09-15T11:56:32.930Z,17.63
2022-09-15T11:59:01.280Z,17.68
2022-09-15T12:01:32.517Z,17.77
2022-09-15T12:04:05.458Z,17.71
2022-09-15T12:06:32.210Z,17.67
2022-09-15T12:08:58.294Z,17.61
2022-09-15T12:11:23.145Z,17.64
2022-09-15T12:13:45.354Z,17.47
2022-09-15T12:16:07.566Z,17.52
2022-09-15T12:18:53.488Z,17.60
2022-09-15T12:21:36.109Z,17.62
2022-09-15T12:24:13.669Z,17.63
2022-09-15T12:26:35.756Z,17.77
2022-09-15T12:29:02.423Z,17.72
2022-09-15T12:31:35.826Z,17.44
2022-09-15T12:34:22.161Z,17.47
2022-09-15T12:36:46.979Z,17.67
2022-09-15T12:39:22.780Z,17.78
2022-09-15T12:41:49.506Z,18.02
2022-09-15T12:44:34.415Z,18.02
2022-09-15T12:46:58.928Z,18.02
2022-09-15T12:49:27.667Z,18.17
2022-09-15T12:51:50.810Z,18.44
2022-09-15T12:54:24.049Z,19.45
2022-09-15T12:56:54.209Z,19.79
2022-09-15T12:59:15.953Z,19.99
2022-09-15T13:01:48.665Z,20.21
2022-09-15T13:04:10.047Z,20.32
2022-09-15T13:06:34.266Z,20.62
2022-09-15T13:09:25.522Z,20.38
2022-09-15T13:11:51.094Z,19.99
2022-09-15T13:14:26.115Z,19.95
2022-09-15T13:17:06.622Z,19.88
2022-09-15T13:19:35.838Z,19.82
2022-09-15T13:22:12.099Z,19.89
2022-09-15T13:24:52.451Z,20.19
2022-09-15T13:27:19.550Z,20.17
2022-09-15T13:29:47.112Z,19.99
2022-09-15T13:32:26.985Z,20.38
2022-09-15T13:35:15.925Z,20.30
2022-09-15T13:38:15.126Z,20.26
2022-09-15T13:41:07.895Z,20.25
2022-09-15T13:43:50.760Z,20.52
2022-09-15T13:46:30.205Z,20.61
2022-09-15T13:49:19.776Z,20.63
2022-09-15T13:51:46.937Z,20.68
2022-09-15T13:54:19.050Z,20.78
2022-09-15T13:56:41.414Z,20.43
2022-09-15T13:59:11.589Z,20.20
2022-09-15T14:01:39.019Z,20.12
2022-09-15T14:04:09.270Z,20.33
2022-09-15T14:06:37.109Z,20.15
2022-09-15T14:09:04.209Z,20.16
2022-09-15T14:11:30.314Z,20.25
2022-09-15T14:13:52.653Z,20.03
2022-09-15T14:16:34.814Z,19.88
2022-09-15T14:18:58.603Z,19.81
2022-09-15T14:21:22.925Z,20.06
2022-09-15T14:23:57.314Z,20.24
2022-09-15T14:26:23.470Z,20.36
2022-09-15T14:29:05.786Z,20.54
2022-09-15T14:31:48.871Z,20.68
2022-09-15T14:34:21.389Z,20.53
2022-09-15T14:36:42.967Z,20.36
2022-09-15T14:39:23.702Z,19.90
2022-09-15T14:41:46.192Z,19.62
2022-09-15T14:47:18.113Z,19.50
2022-09-15T14:49:39.848Z,19.20
2022-09-15T14:52:01.999Z,19.05
2022-09-15T14:54:32.113Z,18.88
2022-09-15T14:56:59.472Z,18.66
2022-09-15T14:59:38.884Z,18.63
2022-09-15T15:02:24.580Z,18.48
2022-09-15T15:04:57.484Z,18.42
2022-09-15T15:07:26.392Z,18.30
2022-09-15T15:10:03.619Z,18.31
2022-09-15T15:12:40.412Z,18.24
2022-09-15T15:15:02.989Z,17.93
2022-09-15T15:17:30.378Z,17.94
2022-09-15T15:19:58.935Z,17.87
2022-09-15T15:22:21.306Z,18.18
2022-09-15T15:24:44.438Z,18.13
2022-09-15T15:27:24.553Z,18.41
2022-09-15T15:29:47.131Z,18.46
2022-09-15T15:32:14.599Z,18.72
2022-09-15T15:34:36.453Z,18.49
2022-09-15T15:37:25.243Z,18.44
2022-09-15T15:39:47.568Z,18.49
2022-09-15T15:42:15.837Z,18.54
2022-09-15T15:44:37.231Z,18.69
2022-09-15T15:47:22.699Z,18.84
2022-09-15T15:50:11.719Z,18.90
2022-09-15T15:52:25.489Z,18.76
2022-09-15T15:54:46.897Z,18.44
2022-09-15T15:57:23.622Z,18.54
2022-09-15T15:59:46.339Z,18.39
2022-09-15T16:02:10.869Z,18.19
2022-09-15T16:04:32.345Z,18.13
2022-09-15T16:06:53.797Z,18.18
2022-09-15T16:09:17.427Z,17.79
2022-09-15T16:11:40.504Z,17.80
2022-09-15T16:14:01.906Z,17.75
2022-09-15T16:16:25.528Z,17.82
2022-09-15T16:18:47.840Z,17.76
2022-09-15T16:21:29.281Z,17.65
2022-09-15T16:23:50.796Z,17.40
2022-09-15T16:26:17.927Z,17.50
2022-09-15T16:28:39.360Z,17.36
2022-09-15T16:31:00.857Z,17.32
2022-09-15T16:33:22.582Z,17.26
2022-09-15T16:35:55.117Z,17.21
2022-09-15T16:38:19.720Z,17.18
2022-09-15T16:40:41.158Z,17.19
2022-09-15T16:43:03.736Z,17.12
2022-09-15T16:45:39.777Z,17.10
2022-09-15T16:48:02.911Z,17.15
2022-09-15T16:50:24.735Z,17.12
2022-09-15T16:52:46.194Z,16.91
2022-09-15T16:55:20.300Z,16.87
2022-09-15T16:57:41.712Z,16.78
2022-09-15T17:00:04.385Z,16.57
2022-09-15T17:02:25.925Z,16.56
2022-09-15T17:04:47.426Z,16.51
2022-09-15T17:07:08.840Z,16.31
2022-09-15T17:09:30.238Z,16.24
2022-09-15T17:11:54.533Z,16.30
2022-09-15T17:14:16.963Z,16.19
2022-09-15T17:16:38.768Z,16.05
2022-09-15T17:19:00.241Z,16.00
2022-09-15T17:21:21.668Z,15.84
2022-09-15T17:23:46.353Z,15.76
2022-09-15T17:26:13.591Z,15.67
2022-09-15T17:28:36.580Z,15.70
2022-09-15T17:31:00.100Z,15.58
2022-09-15T17:33:21.624Z,15.51
2022-09-15T17:35:43.171Z,15.52
2022-09-15T17:38:06.583Z,15.42
2022-09-15T17:40:28.534Z,15.34
2022-09-15T17:42:50.063Z,15.53
2022-09-15T17:45:24.000Z,15.51
2022-09-15T17:47:45.794Z,15.52
2022-09-15T17:50:07.525Z,15.51
2022-09-15T17:52:29.090Z,15.44
2022-09-15T17:54:50.673Z,15.42
2022-09-15T17:57:12.082Z,15.34
2022-09-15T17:59:33.533Z,15.43
2022-09-15T18:01:55.002Z,15.37
2022-09-15T18:04:16.454Z,15.32
2022-09-15T18:06:40.232Z,15.26
2022-09-15T18:09:03.659Z,15.29
2022-09-15T18:11:27.118Z,15.42
2022-09-15T18:13:48.593Z,15.49
2022-09-15T18:16:14.163Z,15.27
2022-09-15T18:18:35.710Z,15.35
2022-09-15T18:20:58.350Z,15.28
2022-09-15T18:23:22.317Z,15.36
2022-09-15T18:25:44.617Z,15.30
2022-09-15T18:28:06.479Z,15.47
2022-09-15T18:30:31.105Z,15.57
2022-09-15T18:32:52.811Z,15.66
2022-09-15T18:35:18.668Z,15.73
2022-09-15T18:37:42.869Z,16.02
2022-09-15T18:40:08.217Z,16.16
2022-09-15T18:42:31.867Z,16.06
2022-09-15T18:44:53.556Z,15.95
2022-09-15T18:47:15.039Z,16.05
2022-09-15T18:49:36.446Z,16.13
2022-09-15T18:51:59.248Z,16.19
2022-09-15T18:54:20.710Z,16.24
2022-09-15T18:56:42.150Z,16.43
2022-09-15T18:59:03.614Z,16.46
2022-09-15T19:01:25.233Z,16.36
2022-09-15T19:03:46.801Z,16.41
2022-09-15T19:06:08.301Z,16.55
2022-09-15T19:08:29.738Z,16.52
2022-09-15T19:10:58.671Z,16.64
2022-09-15T19:13:20.092Z,16.68
2022-09-15T19:15:43.815Z,16.74
2022-09-15T19:18:05.904Z,16.63
2022-09-15T19:20:27.445Z,16.70
2022-09-15T19:22:51.239Z,16.76
2022-09-15T19:25:13.471Z,16.81
2022-09-15T19:27:35.880Z,16.68
2022-09-15T19:29:57.302Z,16.52
2022-09-15T19:32:19.390Z,16.64
2022-09-15T19:34:43.930Z,16.37
2022-09-15T19:37:11.390Z,16.18
2022-09-15T19:39:34.741Z,16.17
2022-09-15T19:41:56.186Z,15.96
2022-09-15T19:44:17.907Z,15.72
2022-09-15T19:46:39.359Z,15.49
2022-09-15T19:49:01.720Z,15.46
2022-09-15T19:51:23.878Z,15.40
2022-09-15T19:53:46.431Z,15.27
2022-09-15T19:56:13.132Z,15.18
2022-09-15T19:58:34.557Z,15.10
2022-09-15T20:00:56.928Z,15.09
2022-09-15T20:03:18.555Z,15.11
2022-09-15T20:05:39.975Z,14.96
2022-09-15T20:08:02.104Z,15.04
2022-09-15T20:10:23.506Z,15.02
2022-09-15T20:12:44.929Z,15.00
2022-09-15T20:15:07.044Z,15.15
2022-09-15T20:17:28.648Z,15.16
2022-09-15T20:19:50.196Z,15.11
2022-09-15T20:22:11.695Z,14.99
2022-09-15T20:24:33.111Z,15.02
2022-09-15T20:26:54.551Z,14.94
2022-09-15T20:29:16.284Z,14.97
2022-09-15T20:31:37.918Z,15.01
2022-09-15T20:34:00.663Z,14.93
2022-09-15T20:36:24.883Z,14.83
2022-09-15T20:38:47.138Z,14.82
2022-09-15T20:41:10.319Z,14.83
2022-09-15T20:43:31.773Z,14.87
2022-09-15T20:45:57.910Z,14.93
2022-09-15T20:48:19.352Z,14.84
2022-09-15T20:50:40.751Z,14.79
2022-09-15T20:53:02.160Z,14.83
2022-09-15T20:55:25.504Z,14.94
2022-09-15T20:57:46.937Z,14.92
2022-09-15T21:00:09.926Z,14.89
2022-09-15T21:02:31.774Z,14.94
2022-09-15T21:04:53.229Z,14.80
2022-09-15T21:07:14.643Z,14.79
2022-09-15T21:09:36.041Z,14.87
2022-09-15T21:11:57.581Z,14.72
2022-09-15T21:14:19.003Z,14.86
2022-09-15T21:16:41.448Z,14.79
2022-09-15T21:19:03.602Z,14.71
2022-09-15T21:21:28.323Z,14.78
2022-09-15T21:23:55.072Z,14.68
2022-09-15T21:26:19.266Z,14.84
2022-09-15T21:28:42.659Z,14.79
2022-09-15T21:31:10.153Z,14.68
2022-09-15T21:33:31.934Z,14.62
2022-09-15T21:36:07.289Z,14.58
2022-09-15T21:38:28.697Z,14.49
2022-09-15T21:40:50.412Z,14.55
2022-09-15T21:43:11.842Z,14.62
2022-09-15T21:45:33.290Z,14.60
2022-09-15T21:47:54.739Z,14.61
2022-09-15T21:50:16.187Z,14.50
2022-09-15T21:52:38.182Z,14.42
2022-09-15T21:54:59.594Z,14.40
2022-09-15T21:57:21.119Z,14.47
2022-09-15T21:59:42.533Z,14.38
2022-09-15T22:02:04.018Z,14.25
2022-09-15T22:04:25.684Z,14.23
2022-09-15T22:06:50.075Z,14.13
2022-09-15T22:09:15.549Z,14.21
2022-09-15T22:11:37.259Z,14.19
2022-09-15T22:13:59.048Z,14.25
2022-09-15T22:16:23.839Z,14.21
2022-09-15T22:18:45.972Z,14.18
2022-09-15T22:21:11.394Z,14.09
2022-09-15T22:23:32.973Z,14.13
2022-09-15T22:25:54.387Z,14.02
2022-09-15T22:28:16.870Z,14.02
2022-09-15T22:30:38.275Z,13.93
2022-09-15T22:32:59.700Z,14.02
2022-09-15T22:35:21.117Z,13.98
2022-09-15T22:37:42.629Z,14.01
2022-09-15T22:40:04.404Z,14.05
2022-09-15T22:42:26.436Z,14.04
2022-09-15T22:44:47.969Z,13.99
2022-09-15T22:47:10.180Z,14.06
2022-09-15T22:49:32.561Z,14.00
2022-09-15T22:51:54.011Z,14.01
2022-09-15T22:54:15.445Z,14.00
2022-09-15T22:56:36.887Z,13.98
2022-09-15T22:58:58.819Z,13.97
2022-09-15T23:01:23.598Z,13.93
2022-09-15T23:03:49.226Z,14.05
2022-09-15T23:06:10.741Z,13.98
2022-09-15T23:08:32.863Z,13.92
2022-09-15T23:11:04.856Z,13.96
2022-09-15T23:13:26.265Z,13.95
2022-09-15T23:15:49.354Z,13.98
2022-09-15T23:18:10.764Z,14.02
2022-09-15T23:20:32.522Z,13.87
2022-09-15T23:22:53.935Z,13.89
2022-09-15T23:25:15.414Z,14.00
2022-09-15T23:27:36.944Z,13.90
2022-09-15T23:29:58.367Z,13.89
2022-09-15T23:32:19.766Z,13.84
2022-09-15T23:34:41.173Z,13.92
2022-09-15T23:37:02.909Z,13.92
2022-09-15T23:39:24.430Z,13.83
2022-09-15T23:41:45.854Z,13.82
2022-09-15T23:44:07.813Z,13.75
2022-09-15T23:46:29.886Z,13.71
2022-09-15T23:48:51.367Z,13.76
2022-09-15T23:51:12.915Z,13.80
2022-09-15T23:53:35.050Z,13.78
2022-09-15T23:55:56.843Z,13.84
2022-09-15T23:58:18.775Z,13.89
